sensor_id;sensor_type;location;lat;lon;timestamp;pressure;altitude;pressure_sealevel;temperature
68510;BMP180;55512;50.102;19.958;2022-09-03T00:00:33;99035.80;;;15.20
68510;BMP180;55512;50.102;19.958;2022-09-03T00:03:35;99029.60;;;15.20
68510;BMP180;55512;50.102;19.958;2022-09-03T00:08:50;99031.00;;;15.20
68510;BMP180;55512;50.102;19.958;2022-09-03T00:11:21;99028.00;;;15.20
68510;BMP180;55512;50.102;19.958;2022-09-03T00:14:05;99030.40;;;15.22
68510;BMP180;55512;50.102;19.958;2022-09-03T00:16:52;99025.80;;;15.20
68510;BMP180;55512;50.102;19.958;2022-09-03T00:19:25;99022.60;;;15.20
68510;BMP180;55512;50.102;19.958;2022-09-03T00:22:18;99016.80;;;15.20
68510;BMP180;55512;50.102;19.958;2022-09-03T00:24:47;99017.00;;;15.20
68510;BMP180;55512;50.102;19.958;2022-09-03T00:27:25;99015.20;;;15.16
68510;BMP180;55512;50.102;19.958;2022-09-03T00:30:03;99013.20;;;15.20
68510;BMP180;55512;50.102;19.958;2022-09-03T00:32:47;99013.80;;;15.16
68510;BMP180;55512;50.102;19.958;2022-09-03T00:35:42;99013.00;;;15.10
68510;BMP180;55512;50.102;19.958;2022-09-03T00:38:08;99013.40;;;15.10
68510;BMP180;55512;50.102;19.958;2022-09-03T00:41:01;99009.80;;;15.10
68510;BMP180;55512;50.102;19.958;2022-09-03T00:44:01;99005.60;;;15.10
68510;BMP180;55512;50.102;19.958;2022-09-03T00:46:52;99002.20;;;15.00
68510;BMP180;55512;50.102;19.958;2022-09-03T00:49:47;99003.60;;;15.06
68510;BMP180;55512;50.102;19.958;2022-09-03T00:52:46;99001.00;;;15.10
68510;BMP180;55512;50.102;19.958;2022-09-03T01:00:54;98997.00;;;15.18
68510;BMP180;55512;50.102;19.958;2022-09-03T01:06:49;98998.20;;;15.20
68510;BMP180;55512;50.102;19.958;2022-09-03T01:12:17;98992.60;;;15.10
68510;BMP180;55512;50.102;19.958;2022-09-03T01:15:10;98994.40;;;15.16
68510;BMP180;55512;50.102;19.958;2022-09-03T01:24:13;99000.20;;;15.18
68510;BMP180;55512;50.102;19.958;2022-09-03T01:32:48;99003.80;;;15.10
68510;BMP180;55512;50.102;19.958;2022-09-03T01:35:41;98999.80;;;15.10
68510;BMP180;55512;50.102;19.958;2022-09-03T01:38:48;99000.80;;;15.10
68510;BMP180;55512;50.102;19.958;2022-09-03T01:42:01;99001.80;;;15.08
68510;BMP180;55512;50.102;19.958;2022-09-03T02:02:26;98998.40;;;15.00
68510;BMP180;55512;50.102;19.958;2022-09-03T02:05:21;98999.40;;;15.00
68510;BMP180;55512;50.102;19.958;2022-09-03T02:10:34;99002.60;;;14.90
68510;BMP180;55512;50.102;19.958;2022-09-03T02:13:14;98999.60;;;14.80
68510;BMP180;55512;50.102;19.958;2022-09-03T02:15:44;99000.40;;;14.80
68510;BMP180;55512;50.102;19.958;2022-09-03T02:18:42;99002.80;;;14.80
68510;BMP180;55512;50.102;19.958;2022-09-03T02:21:13;99008.40;;;14.80
68510;BMP180;55512;50.102;19.958;2022-09-03T02:23:41;99003.60;;;14.70
68510;BMP180;55512;50.102;19.958;2022-09-03T02:26:10;99011.40;;;14.70
68510;BMP180;55512;50.102;19.958;2022-09-03T02:28:36;99005.80;;;14.70
68510;BMP180;55512;50.102;19.958;2022-09-03T02:31:03;99006.80;;;14.60
68510;BMP180;55512;50.102;19.958;2022-09-03T02:33:33;99007.80;;;14.60
68510;BMP180;55512;50.102;19.958;2022-09-03T02:36:02;99008.80;;;14.60
68510;BMP180;55512;50.102;19.958;2022-09-03T02:38:28;99012.60;;;14.60
68510;BMP180;55512;50.102;19.958;2022-09-03T02:40:53;99009.40;;;14.60
68510;BMP180;55512;50.102;19.958;2022-09-03T02:46:09;99004.40;;;14.60
68510;BMP180;55512;50.102;19.958;2022-09-03T02:48:37;99001.80;;;14.56
68510;BMP180;55512;50.102;19.958;2022-09-03T02:51:03;98997.80;;;14.50
68510;BMP180;55512;50.102;19.958;2022-09-03T02:53:29;98999.80;;;14.48
68510;BMP180;55512;50.102;19.958;2022-09-03T02:56:00;98999.20;;;14.40
68510;BMP180;55512;50.102;19.958;2022-09-03T02:58:26;99003.00;;;14.30
68510;BMP180;55512;50.102;19.958;2022-09-03T03:00:53;99005.40;;;14.30
68510;BMP180;55512;50.102;19.958;2022-09-03T03:03:19;99005.00;;;14.20
68510;BMP180;55512;50.102;19.958;2022-09-03T03:05:49;99005.20;;;14.20
68510;BMP180;55512;50.102;19.958;2022-09-03T03:08:17;99001.80;;;14.20
68510;BMP180;55512;50.102;19.958;2022-09-03T03:10:47;99006.00;;;14.20
68510;BMP180;55512;50.102;19.958;2022-09-03T03:13:14;99003.20;;;14.20
68510;BMP180;55512;50.102;19.958;2022-09-03T03:15:41;99006.00;;;14.20
68510;BMP180;55512;50.102;19.958;2022-09-03T03:18:07;99010.60;;;14.20
68510;BMP180;55512;50.102;19.958;2022-09-03T03:20:37;99014.00;;;14.20
68510;BMP180;55512;50.102;19.958;2022-09-03T03:23:03;99015.80;;;14.20
68510;BMP180;55512;50.102;19.958;2022-09-03T03:25:36;99017.00;;;14.30
68510;BMP180;55512;50.102;19.958;2022-09-03T03:28:03;99015.80;;;14.30
68510;BMP180;55512;50.102;19.958;2022-09-03T03:30:29;99014.80;;;14.28
68510;BMP180;55512;50.102;19.958;2022-09-03T03:32:55;99010.60;;;14.28
68510;BMP180;55512;50.102;19.958;2022-09-03T03:35:21;99009.60;;;14.30
68510;BMP180;55512;50.102;19.958;2022-09-03T03:37:47;99010.20;;;14.30
68510;BMP180;55512;50.102;19.958;2022-09-03T03:40:13;99007.00;;;14.30
68510;BMP180;55512;50.102;19.958;2022-09-03T03:42:41;99002.20;;;14.20
68510;BMP180;55512;50.102;19.958;2022-09-03T03:45:07;99009.80;;;14.26
68510;BMP180;55512;50.102;19.958;2022-09-03T03:47:35;99010.80;;;14.22
68510;BMP180;55512;50.102;19.958;2022-09-03T03:50:01;99011.00;;;14.28
68510;BMP180;55512;50.102;19.958;2022-09-03T03:52:27;99011.00;;;14.30
68510;BMP180;55512;50.102;19.958;2022-09-03T03:54:53;99009.00;;;14.24
68510;BMP180;55512;50.102;19.958;2022-09-03T03:57:20;99010.20;;;14.20
68510;BMP180;55512;50.102;19.958;2022-09-03T03:59:46;99006.60;;;14.20
68510;BMP180;55512;50.102;19.958;2022-09-03T04:02:13;99007.00;;;14.20
68510;BMP180;55512;50.102;19.958;2022-09-03T04:04:39;99008.80;;;14.20
68510;BMP180;55512;50.102;19.958;2022-09-03T04:07:05;99010.20;;;14.20
68510;BMP180;55512;50.102;19.958;2022-09-03T04:09:30;99008.00;;;14.14
68510;BMP180;55512;50.102;19.958;2022-09-03T04:11:56;99007.00;;;14.12
68510;BMP180;55512;50.102;19.958;2022-09-03T04:14:26;99010.80;;;14.10
68510;BMP180;55512;50.102;19.958;2022-09-03T04:16:53;99012.20;;;14.10
68510;BMP180;55512;50.102;19.958;2022-09-03T04:19:19;99014.20;;;14.04
68510;BMP180;55512;50.102;19.958;2022-09-03T04:21:45;99010.40;;;14.00
68510;BMP180;55512;50.102;19.958;2022-09-03T04:24:11;99012.40;;;14.00
68510;BMP180;55512;50.102;19.958;2022-09-03T04:26:37;99011.20;;;14.00
68510;BMP180;55512;50.102;19.958;2022-09-03T04:29:07;99011.80;;;14.00
68510;BMP180;55512;50.102;19.958;2022-09-03T04:31:36;99008.20;;;13.98
68510;BMP180;55512;50.102;19.958;2022-09-03T04:34:03;99011.40;;;14.00
68510;BMP180;55512;50.102;19.958;2022-09-03T04:36:31;99011.20;;;13.90
68510;BMP180;55512;50.102;19.958;2022-09-03T04:39:00;99010.20;;;13.94
68510;BMP180;55512;50.102;19.958;2022-09-03T04:41:29;99011.00;;;13.98
68510;BMP180;55512;50.102;19.958;2022-09-03T04:43:57;99008.20;;;14.00
68510;BMP180;55512;50.102;19.958;2022-09-03T04:46:26;99008.20;;;14.00
68510;BMP180;55512;50.102;19.958;2022-09-03T04:48:53;99016.00;;;14.00
68510;BMP180;55512;50.102;19.958;2022-09-03T04:51:23;99019.20;;;14.00
68510;BMP180;55512;50.102;19.958;2022-09-03T04:53:56;99020.40;;;14.10
68510;BMP180;55512;50.102;19.958;2022-09-03T04:56:27;99023.60;;;14.10
68510;BMP180;55512;50.102;19.958;2022-09-03T04:58:56;99024.80;;;14.10
68510;BMP180;55512;50.102;19.958;2022-09-03T05:01:25;99023.40;;;14.18
68510;BMP180;55512;50.102;19.958;2022-09-03T05:03:51;99028.20;;;14.20
68510;BMP180;55512;50.102;19.958;2022-09-03T05:06:17;99028.80;;;14.20
68510;BMP180;55512;50.102;19.958;2022-09-03T05:08:47;99028.40;;;14.28
68510;BMP180;55512;50.102;19.958;2022-09-03T05:11:13;99030.60;;;14.30
68510;BMP180;55512;50.102;19.958;2022-09-03T05:13:39;99028.60;;;14.30
68510;BMP180;55512;50.102;19.958;2022-09-03T05:16:08;99028.80;;;14.30
68510;BMP180;55512;50.102;19.958;2022-09-03T05:18:35;99026.40;;;14.30
68510;BMP180;55512;50.102;19.958;2022-09-03T05:21:07;99029.60;;;14.30
68510;BMP180;55512;50.102;19.958;2022-09-03T05:23:47;99033.80;;;14.30
68510;BMP180;55512;50.102;19.958;2022-09-03T05:26:26;99039.80;;;14.30
68510;BMP180;55512;50.102;19.958;2022-09-03T05:28:55;99048.00;;;14.30
68510;BMP180;55512;50.102;19.958;2022-09-03T05:31:23;99050.00;;;14.36
68510;BMP180;55512;50.102;19.958;2022-09-03T05:33:56;99053.60;;;14.40
68510;BMP180;55512;50.102;19.958;2022-09-03T05:36:29;99056.00;;;14.40
68510;BMP180;55512;50.102;19.958;2022-09-03T05:38:57;99053.40;;;14.40
68510;BMP180;55512;50.102;19.958;2022-09-03T05:41:25;99049.40;;;14.44
68510;BMP180;55512;50.102;19.958;2022-09-03T05:43:53;99040.20;;;14.50
68510;BMP180;55512;50.102;19.958;2022-09-03T05:46:27;99047.80;;;14.50
68510;BMP180;55512;50.102;19.958;2022-09-03T05:49:06;99044.80;;;14.50
68510;BMP180;55512;50.102;19.958;2022-09-03T05:51:34;99050.40;;;14.60
68510;BMP180;55512;50.102;19.958;2022-09-03T05:54:00;99046.60;;;14.60
68510;BMP180;55512;50.102;19.958;2022-09-03T05:56:30;99042.20;;;14.60
68510;BMP180;55512;50.102;19.958;2022-09-03T05:58:59;99037.60;;;14.70
68510;BMP180;55512;50.102;19.958;2022-09-03T06:01:32;99035.20;;;14.70
68510;BMP180;55512;50.102;19.958;2022-09-03T06:04:01;99029.80;;;14.80
68510;BMP180;55512;50.102;19.958;2022-09-03T06:06:30;99026.80;;;14.80
68510;BMP180;55512;50.102;19.958;2022-09-03T06:09:01;99025.40;;;14.88
68510;BMP180;55512;50.102;19.958;2022-09-03T06:11:28;99024.60;;;14.90
68510;BMP180;55512;50.102;19.958;2022-09-03T06:14:03;99026.00;;;15.00
68510;BMP180;55512;50.102;19.958;2022-09-03T06:16:31;99035.20;;;15.00
68510;BMP180;55512;50.102;19.958;2022-09-03T06:19:01;99035.20;;;15.10
68510;BMP180;55512;50.102;19.958;2022-09-03T06:21:28;99039.40;;;15.10
68510;BMP180;55512;50.102;19.958;2022-09-03T06:23:56;99037.60;;;15.16
68510;BMP180;55512;50.102;19.958;2022-09-03T06:26:22;99044.60;;;15.20
68510;BMP180;55512;50.102;19.958;2022-09-03T06:28:48;99051.60;;;15.30
68510;BMP180;55512;50.102;19.958;2022-09-03T06:31:18;99054.00;;;15.30
68510;BMP180;55512;50.102;19.958;2022-09-03T06:33:45;99059.80;;;15.36
68510;BMP180;55512;50.102;19.958;2022-09-03T06:36:17;99059.20;;;15.40
68510;BMP180;55512;50.102;19.958;2022-09-03T06:38:44;99055.20;;;15.46
68510;BMP180;55512;50.102;19.958;2022-09-03T06:41:18;99051.20;;;15.50
68510;BMP180;55512;50.102;19.958;2022-09-03T06:43:46;99050.60;;;15.50
68510;BMP180;55512;50.102;19.958;2022-09-03T06:46:22;99050.60;;;15.50
68510;BMP180;55512;50.102;19.958;2022-09-03T06:48:48;99054.80;;;15.60
68510;BMP180;55512;50.102;19.958;2022-09-03T06:51:27;99055.60;;;15.60
68510;BMP180;55512;50.102;19.958;2022-09-03T06:54:03;99057.40;;;15.60
68510;BMP180;55512;50.102;19.958;2022-09-03T06:56:29;99059.60;;;15.66
68510;BMP180;55512;50.102;19.958;2022-09-03T06:59:02;99059.20;;;15.70
68510;BMP180;55512;50.102;19.958;2022-09-03T07:01:31;99056.40;;;15.80
68510;BMP180;55512;50.102;19.958;2022-09-03T07:03:59;99052.60;;;15.80
68510;BMP180;55512;50.102;19.958;2022-09-03T07:06:31;99053.20;;;15.90
68510;BMP180;55512;50.102;19.958;2022-09-03T07:08:57;99049.00;;;16.00
68510;BMP180;55512;50.102;19.958;2022-09-03T07:11:28;99053.80;;;16.00
68510;BMP180;55512;50.102;19.958;2022-09-03T07:13:56;99053.60;;;16.10
68510;BMP180;55512;50.102;19.958;2022-09-03T07:16:37;99062.60;;;16.10
68510;BMP180;55512;50.102;19.958;2022-09-03T07:19:04;99066.60;;;16.20
68510;BMP180;55512;50.102;19.958;2022-09-03T07:21:33;99070.40;;;16.20
68510;BMP180;55512;50.102;19.958;2022-09-03T07:24:01;99076.00;;;16.28
68510;BMP180;55512;50.102;19.958;2022-09-03T07:26:33;99081.20;;;16.30
68510;BMP180;55512;50.102;19.958;2022-09-03T07:28:59;99077.40;;;16.38
68510;BMP180;55512;50.102;19.958;2022-09-03T07:31:32;99080.80;;;16.40
68510;BMP180;55512;50.102;19.958;2022-09-03T07:34:04;99079.60;;;16.44
68510;BMP180;55512;50.102;19.958;2022-09-03T07:36:36;99079.20;;;16.50
68510;BMP180;55512;50.102;19.958;2022-09-03T07:39:12;99078.80;;;16.50
68510;BMP180;55512;50.102;19.958;2022-09-03T07:41:38;99078.80;;;16.50
68510;BMP180;55512;50.102;19.958;2022-09-03T07:44:08;99080.80;;;16.60
68510;BMP180;55512;50.102;19.958;2022-09-03T07:46:36;99083.00;;;16.60
68510;BMP180;55512;50.102;19.958;2022-09-03T07:49:04;99076.20;;;16.70
68510;BMP180;55512;50.102;19.958;2022-09-03T07:51:34;99082.40;;;16.70
68510;BMP180;55512;50.102;19.958;2022-09-03T07:54:03;99083.80;;;16.80
68510;BMP180;55512;50.102;19.958;2022-09-03T07:56:31;99081.00;;;16.80
68510;BMP180;55512;50.102;19.958;2022-09-03T07:58:59;99084.00;;;16.80
68510;BMP180;55512;50.102;19.958;2022-09-03T08:01:27;99080.80;;;16.80
68510;BMP180;55512;50.102;19.958;2022-09-03T08:03:54;99089.20;;;16.80
68510;BMP180;55512;50.102;19.958;2022-09-03T08:06:23;99094.80;;;16.84
68510;BMP180;55512;50.102;19.958;2022-09-03T08:08:56;99099.60;;;16.88
68510;BMP180;55512;50.102;19.958;2022-09-03T08:11:24;99097.40;;;16.90
68510;BMP180;55512;50.102;19.958;2022-09-03T08:13:57;99101.60;;;16.90
68510;BMP180;55512;50.102;19.958;2022-09-03T08:16:38;99093.60;;;16.90
68510;BMP180;55512;50.102;19.958;2022-09-03T08:19:04;99093.20;;;16.90
68510;BMP180;55512;50.102;19.958;2022-09-03T08:21:31;99094.60;;;16.90
68510;BMP180;55512;50.102;19.958;2022-09-03T08:23:57;99092.00;;;17.00
68510;BMP180;55512;50.102;19.958;2022-09-03T08:26:31;99092.60;;;17.00
68510;BMP180;55512;50.102;19.958;2022-09-03T08:28:58;99086.40;;;17.00
68510;BMP180;55512;50.102;19.958;2022-09-03T08:31:24;99091.80;;;17.00
68510;BMP180;55512;50.102;19.958;2022-09-03T08:33:53;99094.40;;;17.10
68510;BMP180;55512;50.102;19.958;2022-09-03T08:36:38;99084.00;;;17.10
68510;BMP180;55512;50.102;19.958;2022-09-03T08:39:07;99080.40;;;17.20
68510;BMP180;55512;50.102;19.958;2022-09-03T08:42:24;99087.80;;;17.20
68510;BMP180;55512;50.102;19.958;2022-09-03T08:45:00;99091.00;;;17.30
68510;BMP180;55512;50.102;19.958;2022-09-03T08:48:00;99088.20;;;17.30
68510;BMP180;55512;50.102;19.958;2022-09-03T08:50:32;99086.20;;;17.40
68510;BMP180;55512;50.102;19.958;2022-09-03T08:53:21;99090.20;;;17.40
68510;BMP180;55512;50.102;19.958;2022-09-03T08:55:55;99088.60;;;17.40
68510;BMP180;55512;50.102;19.958;2022-09-03T08:58:28;99090.40;;;17.40
68510;BMP180;55512;50.102;19.958;2022-09-03T09:07:16;99106.60;;;17.40
68510;BMP180;55512;50.102;19.958;2022-09-03T09:10:37;99103.20;;;17.40
68510;BMP180;55512;50.102;19.958;2022-09-03T09:22:09;99100.20;;;17.50
68510;BMP180;55512;50.102;19.958;2022-09-03T09:24:46;99102.40;;;17.50
68510;BMP180;55512;50.102;19.958;2022-09-03T09:27:15;99108.40;;;17.60
68510;BMP180;55512;50.102;19.958;2022-09-03T09:29:49;99109.80;;;17.60
68510;BMP180;55512;50.102;19.958;2022-09-03T09:32:18;99112.00;;;17.62
68510;BMP180;55512;50.102;19.958;2022-09-03T09:34:44;99113.40;;;17.68
68510;BMP180;55512;50.102;19.958;2022-09-03T09:37:13;99108.80;;;17.70
68510;BMP180;55512;50.102;19.958;2022-09-03T09:39:55;99114.00;;;17.70
68510;BMP180;55512;50.102;19.958;2022-09-03T09:42:22;99112.20;;;17.70
68510;BMP180;55512;50.102;19.958;2022-09-03T09:44:48;99109.80;;;17.70
68510;BMP180;55512;50.102;19.958;2022-09-03T09:47:37;99107.40;;;17.68
68510;BMP180;55512;50.102;19.958;2022-09-03T09:50:18;99111.80;;;17.70
68510;BMP180;55512;50.102;19.958;2022-09-03T09:52:45;99108.80;;;17.60
68510;BMP180;55512;50.102;19.958;2022-09-03T09:55:18;99113.40;;;17.60
68510;BMP180;55512;50.102;19.958;2022-09-03T09:57:44;99113.00;;;17.60
68510;BMP180;55512;50.102;19.958;2022-09-03T10:00:15;99113.80;;;17.64
68510;BMP180;55512;50.102;19.958;2022-09-03T10:02:52;99118.60;;;17.66
68510;BMP180;55512;50.102;19.958;2022-09-03T10:05:26;99118.80;;;17.62
68510;BMP180;55512;50.102;19.958;2022-09-03T10:08:02;99118.60;;;17.64
68510;BMP180;55512;50.102;19.958;2022-09-03T10:10:33;99118.40;;;17.64
68510;BMP180;55512;50.102;19.958;2022-09-03T10:13:29;99113.00;;;17.68
68510;BMP180;55512;50.102;19.958;2022-09-03T10:16:26;99113.60;;;17.70
68510;BMP180;55512;50.102;19.958;2022-09-03T10:19:17;99107.80;;;17.78
68510;BMP180;55512;50.102;19.958;2022-09-03T10:22:06;99095.20;;;17.80
68510;BMP180;55512;50.102;19.958;2022-09-03T10:24:57;99095.00;;;17.90
68510;BMP180;55512;50.102;19.958;2022-09-03T10:27:23;99094.20;;;17.90
68510;BMP180;55512;50.102;19.958;2022-09-03T10:29:50;99087.00;;;17.90
68510;BMP180;55512;50.102;19.958;2022-09-03T10:35:29;99097.20;;;18.00
68510;BMP180;55512;50.102;19.958;2022-09-03T10:38:31;99100.20;;;18.00
68510;BMP180;55512;50.102;19.958;2022-09-03T10:41:26;99101.40;;;18.00
68510;BMP180;55512;50.102;19.958;2022-09-03T10:49:54;99115.60;;;18.06
68510;BMP180;55512;50.102;19.958;2022-09-03T10:54:06;99111.80;;;18.10
68510;BMP180;55512;50.102;19.958;2022-09-03T10:56:21;99114.20;;;18.20
68510;BMP180;55512;50.102;19.958;2022-09-03T11:05:00;99108.60;;;18.40
68510;BMP180;55512;50.102;19.958;2022-09-03T11:07:52;99104.20;;;18.50
68510;BMP180;55512;50.102;19.958;2022-09-03T11:10:31;99107.40;;;18.60
68510;BMP180;55512;50.102;19.958;2022-09-03T11:13:53;99111.80;;;18.60
68510;BMP180;55512;50.102;19.958;2022-09-03T11:16:30;99109.00;;;18.66
68510;BMP180;55512;50.102;19.958;2022-09-03T11:19:04;99111.60;;;18.70
68510;BMP180;55512;50.102;19.958;2022-09-03T11:21:32;99108.00;;;18.70
68510;BMP180;55512;50.102;19.958;2022-09-03T11:24:22;99106.00;;;18.74
68510;BMP180;55512;50.102;19.958;2022-09-03T11:27:32;99112.20;;;18.80
68510;BMP180;55512;50.102;19.958;2022-09-03T11:30:21;99108.00;;;18.88
68510;BMP180;55512;50.102;19.958;2022-09-03T11:32:53;99099.00;;;18.90
68510;BMP180;55512;50.102;19.958;2022-09-03T11:35:38;99098.20;;;18.90
68510;BMP180;55512;50.102;19.958;2022-09-03T11:41:11;99085.00;;;19.00
68510;BMP180;55512;50.102;19.958;2022-09-03T11:43:39;99080.80;;;19.04
68510;BMP180;55512;50.102;19.958;2022-09-03T11:46:06;99081.20;;;19.10
68510;BMP180;55512;50.102;19.958;2022-09-03T11:48:43;99075.80;;;19.16
68510;BMP180;55512;50.102;19.958;2022-09-03T11:51:39;99070.40;;;19.20
68510;BMP180;55512;50.102;19.958;2022-09-03T11:56:41;99071.60;;;19.30
68510;BMP180;55512;50.102;19.958;2022-09-03T12:02:03;99068.80;;;19.40
68510;BMP180;55512;50.102;19.958;2022-09-03T12:05:06;99073.40;;;19.40
68510;BMP180;55512;50.102;19.958;2022-09-03T12:10:48;99070.00;;;19.40
68510;BMP180;55512;50.102;19.958;2022-09-03T12:22:14;99078.80;;;19.30
68510;BMP180;55512;50.102;19.958;2022-09-03T12:24:40;99076.00;;;19.32
68510;BMP180;55512;50.102;19.958;2022-09-03T12:27:22;99076.80;;;19.40
68510;BMP180;55512;50.102;19.958;2022-09-03T12:30:02;99072.80;;;19.40
68510;BMP180;55512;50.102;19.958;2022-09-03T12:32:33;99068.80;;;19.40
68510;BMP180;55512;50.102;19.958;2022-09-03T12:35:17;99065.60;;;19.46
68510;BMP180;55512;50.102;19.958;2022-09-03T12:37:43;99060.40;;;19.50
68510;BMP180;55512;50.102;19.958;2022-09-03T12:40:26;99053.40;;;19.60
68510;BMP180;55512;50.102;19.958;2022-09-03T12:42:53;99052.80;;;19.70
68510;BMP180;55512;50.102;19.958;2022-09-03T12:45:25;99049.80;;;19.80
68510;BMP180;55512;50.102;19.958;2022-09-03T12:47:52;99053.40;;;19.80
68510;BMP180;55512;50.102;19.958;2022-09-03T12:50:24;99051.80;;;19.80
68510;BMP180;55512;50.102;19.958;2022-09-03T12:52:58;99048.80;;;19.90
68510;BMP180;55512;50.102;19.958;2022-09-03T12:55:41;99045.00;;;19.90
68510;BMP180;55512;50.102;19.958;2022-09-03T13:01:21;99035.60;;;20.00
68510;BMP180;55512;50.102;19.958;2022-09-03T13:03:55;99030.80;;;20.10
68510;BMP180;55512;50.102;19.958;2022-09-03T13:06:31;99033.60;;;20.20
68510;BMP180;55512;50.102;19.958;2022-09-03T13:09:05;99030.00;;;20.30
68510;BMP180;55512;50.102;19.958;2022-09-03T13:11:34;99032.40;;;20.30
68510;BMP180;55512;50.102;19.958;2022-09-03T13:14:10;99028.60;;;20.40
68510;BMP180;55512;50.102;19.958;2022-09-03T13:28:05;99045.00;;;20.76
68510;BMP180;55512;50.102;19.958;2022-09-03T13:30:59;99046.80;;;20.88
68510;BMP180;55512;50.102;19.958;2022-09-03T13:33:44;99047.40;;;20.82
68510;BMP180;55512;50.102;19.958;2022-09-03T13:39:42;99049.80;;;20.80
68510;BMP180;55512;50.102;19.958;2022-09-03T13:47:57;99041.60;;;20.90
68510;BMP180;55512;50.102;19.958;2022-09-03T13:51:00;99033.20;;;21.00
68510;BMP180;55512;50.102;19.958;2022-09-03T13:53:58;99031.00;;;21.10
68510;BMP180;55512;50.102;19.958;2022-09-03T13:59:30;99030.00;;;21.20
68510;BMP180;55512;50.102;19.958;2022-09-03T14:02:06;99034.60;;;21.30
68510;BMP180;55512;50.102;19.958;2022-09-03T14:07:40;99029.20;;;21.40
68510;BMP180;55512;50.102;19.958;2022-09-03T14:15:26;99040.20;;;21.40
68510;BMP180;55512;50.102;19.958;2022-09-03T14:21:00;99042.80;;;21.40
68510;BMP180;55512;50.102;19.958;2022-09-03T14:26:36;99034.00;;;21.40
68510;BMP180;55512;50.102;19.958;2022-09-03T14:29:16;99032.20;;;21.40
68510;BMP180;55512;50.102;19.958;2022-09-03T14:32:26;99036.20;;;21.40
68510;BMP180;55512;50.102;19.958;2022-09-03T14:40:44;99021.60;;;21.30
68510;BMP180;55512;50.102;19.958;2022-09-03T14:43:34;99024.40;;;21.32
68510;BMP180;55512;50.102;19.958;2022-09-03T14:46:08;99035.40;;;21.30
68510;BMP180;55512;50.102;19.958;2022-09-03T14:49:19;99038.20;;;21.30
68510;BMP180;55512;50.102;19.958;2022-09-03T15:06:17;99039.00;;;21.00
68510;BMP180;55512;50.102;19.958;2022-09-03T15:09:39;99035.00;;;20.92
68510;BMP180;55512;50.102;19.958;2022-09-03T15:14:52;99030.40;;;20.90
68510;BMP180;55512;50.102;19.958;2022-09-03T15:17:39;99025.60;;;20.90
68510;BMP180;55512;50.102;19.958;2022-09-03T15:20:48;99024.60;;;20.90
68510;BMP180;55512;50.102;19.958;2022-09-03T15:37:26;99017.80;;;20.70
68510;BMP180;55512;50.102;19.958;2022-09-03T15:40:47;99021.00;;;20.70
68510;BMP180;55512;50.102;19.958;2022-09-03T15:43:30;99021.40;;;20.60
68510;BMP180;55512;50.102;19.958;2022-09-03T15:46:02;99014.20;;;20.60
68510;BMP180;55512;50.102;19.958;2022-09-03T15:49:03;99018.20;;;20.50
68510;BMP180;55512;50.102;19.958;2022-09-03T15:51:57;99019.60;;;20.50
68510;BMP180;55512;50.102;19.958;2022-09-03T15:54:58;99024.00;;;20.40
68510;BMP180;55512;50.102;19.958;2022-09-03T15:57:59;99027.00;;;20.36
68510;BMP180;55512;50.102;19.958;2022-09-03T16:03:13;99025.20;;;20.22
68510;BMP180;55512;50.102;19.958;2022-09-03T16:05:57;99027.60;;;20.20
68510;BMP180;55512;50.102;19.958;2022-09-03T16:08:58;99030.80;;;20.20
68510;BMP180;55512;50.102;19.958;2022-09-03T16:16:30;99020.80;;;20.10
68510;BMP180;55512;50.102;19.958;2022-09-03T16:19:24;99024.80;;;20.06
68510;BMP180;55512;50.102;19.958;2022-09-03T16:22:03;99018.40;;;20.02
68510;BMP180;55512;50.102;19.958;2022-09-03T16:24:53;99014.80;;;20.02
68510;BMP180;55512;50.102;19.958;2022-09-03T16:27:31;99016.80;;;20.00
68510;BMP180;55512;50.102;19.958;2022-09-03T16:30:13;99019.00;;;20.00
68510;BMP180;55512;50.102;19.958;2022-09-03T16:46:24;99020.20;;;20.10
68510;BMP180;55512;50.102;19.958;2022-09-03T16:55:53;99018.40;;;20.10
68510;BMP180;55512;50.102;19.958;2022-09-03T17:01:20;99021.40;;;20.10
68510;BMP180;55512;50.102;19.958;2022-09-03T17:12:55;99021.20;;;20.00
68510;BMP180;55512;50.102;19.958;2022-09-03T17:15:53;99021.40;;;19.98
68510;BMP180;55512;50.102;19.958;2022-09-03T17:18:49;99013.40;;;19.90
68510;BMP180;55512;50.102;19.958;2022-09-03T17:36:02;99036.40;;;19.70
68510;BMP180;55512;50.102;19.958;2022-09-03T17:50:30;99049.80;;;19.50
68510;BMP180;55512;50.102;19.958;2022-09-03T17:53:21;99053.80;;;19.40
68510;BMP180;55512;50.102;19.958;2022-09-03T17:56:07;99057.20;;;19.40
68510;BMP180;55512;50.102;19.958;2022-09-03T17:58:42;99057.00;;;19.30
68510;BMP180;55512;50.102;19.958;2022-09-03T18:01:19;99059.80;;;19.30
68510;BMP180;55512;50.102;19.958;2022-09-03T18:03:56;99059.80;;;19.20
68510;BMP180;55512;50.102;19.958;2022-09-03T18:06:41;99061.00;;;19.20
68510;BMP180;55512;50.102;19.958;2022-09-03T18:09:32;99058.00;;;19.12
68510;BMP180;55512;50.102;19.958;2022-09-03T18:15:05;99061.60;;;19.00
68510;BMP180;55512;50.102;19.958;2022-09-03T18:17:47;99059.40;;;19.00
68510;BMP180;55512;50.102;19.958;2022-09-03T18:20:16;99060.60;;;18.90
68510;BMP180;55512;50.102;19.958;2022-09-03T18:23:06;99058.80;;;18.80
68510;BMP180;55512;50.102;19.958;2022-09-03T18:25:59;99059.60;;;18.80
68510;BMP180;55512;50.102;19.958;2022-09-03T18:28:53;99059.80;;;18.70
68510;BMP180;55512;50.102;19.958;2022-09-03T18:31:40;99061.20;;;18.70
68510;BMP180;55512;50.102;19.958;2022-09-03T18:34:35;99062.20;;;18.66
68510;BMP180;55512;50.102;19.958;2022-09-03T18:37:26;99069.40;;;18.60
68510;BMP180;55512;50.102;19.958;2022-09-03T18:40:25;99066.40;;;18.50
68510;BMP180;55512;50.102;19.958;2022-09-03T18:46:34;99068.20;;;18.46
68510;BMP180;55512;50.102;19.958;2022-09-03T18:49:33;99069.60;;;18.40
68510;BMP180;55512;50.102;19.958;2022-09-03T18:52:49;99081.00;;;18.36
68510;BMP180;55512;50.102;19.958;2022-09-03T18:56:45;99082.80;;;18.26
68510;BMP180;55512;50.102;19.958;2022-09-03T19:00:02;99079.60;;;18.20
68510;BMP180;55512;50.102;19.958;2022-09-03T19:06:14;99076.80;;;18.10